Latest Weather Observations for Davis*

IDT60801

Issued at 6:31 am EST Monday 29 August 2016 (issued every 30 minutes, with the page automatically refreshed every 10 minutes)

About weather observations | Map of weather stations | Latest weather observations for ANT | Other Formats
Station Details ID: 300000 Name: DAVIS Lat: -68.57 Lon: 77.97 Height: 18.0 m
Data from the previous 72 hours. | See also: Recent months at Davis*
Date/Time
EST
Temp
°C
App
Temp
°C
Dew
Point
°C
Rel
Hum
%
Delta-T
°C
Wind Press
QNH
hPa
Press
MSL
hPa
Rain since
9am
mm
Dir  Spd
km/h
Gust
km/h
Spd
kts
Gust
kts
29/06:30am -25.2 -31.9 -33.8 45 - E 15 17 8 9 978.3 - -
29/06:00am -24.6 -30.6 -34.5 39 - NE 11 15 6 8 978.1 - -
29/05:30am -24.2 -29.8 -34.1 40 - NE 9 15 5 8 978.0 - -
29/05:00am -24.5 -29.7 -33.4 44 - ENE 7 9 4 5 977.8 - -
29/04:30am -23.8 -29.8 -33.3 41 - E 11 15 6 8 977.7 - -
29/04:00am -24.9 -30.1 -34.0 43 - ESE 7 13 4 7 977.7 978.0 -
29/03:30am -23.8 -30.1 -33.5 40 - ESE 13 17 7 9 977.4 - -
29/03:00am -23.2 -29.2 -33.2 40 - ESE 11 13 6 7 977.5 - -
29/02:30am -23.2 -29.5 -33.0 40 - ESE 13 15 7 8 977.3 - -
29/02:00am -23.2 -30.3 -32.5 42 - ESE 17 19 9 10 977.3 - -
29/01:30am -23.0 -30.1 -32.5 42 - E 17 20 9 11 977.2 - -
29/01:00am -23.1 -30.2 -32.1 44 - E 17 20 9 11 977.2 977.5 -
29/12:30am -22.8 -29.9 -32.1 42 - ESE 17 20 9 11 977.2 - -
29/12:00am -22.7 -29.0 -31.1 46 - ESE 13 17 7 9 977.3 - -
 
Date/Time
EST
Temp
°C
App
Temp
°C
Dew
Point
°C
Rel
Hum
%
Delta-T
°C
Wind Press
QNH
hPa
Press
MSL
hPa
Rain since
9am
mm
Dir  Spd
km/h
Gust
km/h
Spd
kts
Gust
kts
28/11:30pm -22.2 -28.5 -30.9 45 - NE 13 17 7 9 977.3 - -
28/11:00pm -21.9 -28.6 -30.8 44 - E 15 19 8 10 977.2 - -
28/10:30pm -21.1 -28.2 -30.1 44 - ENE 17 20 9 11 977.1 - -
28/10:00pm -21.2 -28.6 -29.0 49 - ENE 19 22 10 12 977.1 977.4 -
28/09:30pm -20.7 -28.7 -29.7 44 - ENE 22 24 12 13 976.9 - -
28/09:00pm -20.2 -27.3 -29.5 43 - NE 17 20 9 11 976.7 - -
28/08:30pm -19.7 -26.4 -28.8 44 - ENE 15 17 8 9 976.9 - -
28/08:00pm -19.7 -25.2 -28.1 47 - ENE 9 11 5 6 976.8 - -
28/07:30pm -18.9 -24.0 -28.8 41 - NE 7 9 4 5 976.8 - -
28/07:00pm -18.6 -22.4 -28.3 42 - CALM 0 0 0 0 976.8 977.1 -
28/06:30pm -19.0 -22.8 -28.4 43 - CALM 0 6 0 3 976.9 - -
28/06:00pm -18.8 -23.9 -27.7 45 - ENE 7 9 4 5 976.7 - -
28/05:30pm -19.4 -24.3 -26.9 51 - NE 6 7 3 4 976.9 - -
28/05:00pm -19.2 -25.1 -27.6 47 - ESE 11 13 6 7 977.1 - -
28/04:30pm -19.1 -24.6 -27.5 47 - ESE 9 11 5 6 977.3 - -
28/04:00pm -19.4 -24.9 -27.4 49 - E 9 13 5 7 977.6 977.9 -
28/03:30pm -19.7 -26.3 -27.9 48 - ESE 15 17 8 9 977.7 - -
28/03:00pm -19.9 -26.9 -28.0 48 - E 17 17 9 9 978.1 - -
28/02:30pm -20.3 -27.9 -27.8 51 - E 20 24 11 13 978.1 - -
28/02:00pm -21.1 -28.1 -28.5 51 - ESE 17 20 9 11 978.4 - -
28/01:30pm -21.3 -28.9 -29.1 49 - ESE 20 24 11 13 978.6 - -
28/01:00pm -21.9 -29.3 -28.3 56 - E 19 20 10 11 978.8 979.1 -
28/12:30pm -21.4 -28.8 -27.4 58 - ESE 19 20 10 11 979.0 - -
28/12:00pm -22.0 -29.4 -28.2 57 - E 19 20 10 11 979.3 - -
28/11:30am -21.5 -28.9 -28.5 53 - ESE 19 22 10 12 979.6 - -
28/11:00am -21.4 -28.4 -28.2 54 - ESE 17 20 9 11 979.8 - -
28/10:30am -20.8 -27.8 -27.0 57 - ESE 17 19 9 10 980.2 - -
28/10:00am -21.5 -28.5 -26.3 65 - E 17 19 9 10 980.7 981.0 -
28/09:30am -21.7 -26.2 -25.7 70 - NE 4 11 2 6 981.0 - -
28/09:00am -21.3 -25.8 -25.3 70 - NNE 4 6 2 3 981.3 - -
28/08:30am -21.2 -26.7 -25.8 66 - NE 9 13 5 7 981.5 - -
28/08:00am -21.8 -26.9 -26.4 66 - ENE 7 9 4 5 982.0 - -
28/07:30am -20.6 -25.7 -25.4 65 - N 7 9 4 5 981.9 - -
28/07:00am -21.4 -25.5 -26.4 64 - S 2 6 1 3 982.3 982.6 -
28/06:30am -20.2 -25.3 -25.4 63 - SSE 7 11 4 6 982.6 - -
28/06:00am -18.8 -24.6 -25.0 58 - SE 11 13 6 7 982.8 - -
28/05:30am -20.7 -25.8 -24.9 69 - N 7 9 4 5 982.9 - -
28/05:00am -19.8 -23.5 -24.8 64 - CALM 0 6 0 3 982.9 - -
28/04:30am -19.6 -23.7 -25.4 60 - ESE 2 7 1 4 983.0 - -
28/04:00am -18.0 -23.0 -22.4 68 - SW 7 9 4 5 983.1 983.4 -
28/03:30am -17.0 -21.1 -22.7 61 - S 2 9 1 5 983.2 - -
28/03:00am -16.5 -22.6 -22.6 59 - SE 13 15 7 8 983.1 - -
28/02:30am -16.1 -22.6 -22.2 59 - SSE 15 17 8 9 983.1 - -
28/02:00am -16.3 -22.4 -22.8 57 - SSE 13 17 7 9 983.4 - -
28/01:30am -16.9 -22.2 -21.5 67 - SSW 9 11 5 6 983.5 - -
28/01:00am -16.4 -20.4 -21.8 63 - S 2 9 1 5 983.6 983.9 -
28/12:30am -16.1 -21.8 -22.2 59 - SSE 11 15 6 8 983.4 - -
28/12:00am -16.0 -21.0 -21.8 61 - S 7 9 4 5 983.4 - -
 
Date/Time
EST
Temp
°C
App
Temp
°C
Dew
Point
°C
Rel
Hum
%
Delta-T
°C
Wind Press
QNH
hPa
Press
MSL
hPa
Rain since
9am
mm
Dir  Spd
km/h
Gust
km/h
Spd
kts
Gust
kts
27/11:30pm -14.7 -20.8 -21.7 55 - S 13 15 7 8 983.3 - -
27/11:00pm -15.1 -21.2 -20.9 61 - S 13 15 7 8 983.2 - -
27/10:30pm -15.3 -20.6 -20.7 63 - SSW 9 11 5 6 983.1 - -
27/10:00pm -15.1 -20.8 -20.5 63 - SSW 11 15 6 8 982.9 983.2 -
27/09:30pm -13.5 -18.2 -19.2 62 - SE 6 9 3 5 982.6 - -
27/09:00pm -13.5 -18.7 -18.3 67 - NNE 9 13 5 7 982.3 - -
27/08:30pm -13.1 -18.7 -18.4 64 - NNE 11 17 6 9 982.3 - -
27/08:00pm -12.5 -17.2 -18.1 63 - NE 6 15 3 8 982.3 - -
27/07:30pm -12.3 -18.3 -18.2 61 - NNE 13 20 7 11 982.2 - -
27/07:00pm -11.8 -16.4 -18.0 60 - N 6 9 3 5 982.2 982.5 -
27/06:30pm -11.8 -17.0 -16.7 67 - ENE 9 13 5 7 981.8 - -
27/06:00pm -12.1 -19.3 -16.6 69 - NE 20 26 11 14 981.4 - -
27/05:30pm -11.9 -17.8 -16.8 67 - NE 13 17 7 9 981.1 - -
27/05:00pm -11.8 -19.8 -16.7 67 - NNE 24 30 13 16 980.7 - -
27/04:30pm -12.0 -19.6 -16.5 69 - NE 22 28 12 15 980.8 - -
27/04:00pm -11.6 -21.3 -17.0 64 - NE 33 43 18 23 980.2 980.5 -
27/03:30pm -11.8 -21.9 -17.6 62 - NNE 35 44 19 24 979.9 - -
27/03:00pm -11.6 -21.2 -18.0 59 - NNE 32 46 17 25 979.6 - -
27/02:30pm -11.5 -19.2 -18.1 58 - NE 22 43 12 23 979.3 - -
27/02:00pm -11.5 -20.0 -18.7 55 - NE 26 33 14 18 979.1 - -
27/01:30pm -11.6 -20.8 -18.6 56 - ENE 30 39 16 21 978.5 - -
27/01:00pm -11.6 -19.7 -18.4 57 - ENE 24 35 13 19 978.1 978.4 -
27/12:30pm -11.1 -19.9 -17.7 58 - ENE 28 43 15 23 977.8 - -
27/12:00pm -10.9 -20.7 -17.5 58 - NE 33 54 18 29 977.2 - -
27/11:30am -10.5 -20.3 -17.8 55 - NE 33 61 18 33 976.7 - -
27/11:05am -10.5 -21.4 -17.1 58 - NE 39 57 21 31 976.1 - -
27/11:00am -10.5 -21.8 -16.9 59 - NE 41 54 22 29 976.4 - -
27/10:30am -10.1 -22.7 -16.6 59 - NE 48 67 26 36 975.8 - -
27/10:00am -10.4 -23.3 -16.3 62 - NE 50 69 27 37 975.3 975.6 -
27/09:57am -10.1 -22.7 -16.4 60 - NE 48 69 26 37 975.2 - -
27/09:30am -10.5 -22.6 -15.8 65 - NE 46 57 25 31 975.1 - -
27/09:17am -10.6 -23.5 -15.5 67 - NNE 50 69 27 37 974.9 - -
27/09:00am -10.2 -24.5 -16.3 61 - NE 57 74 31 40 974.2 - -
27/08:30am -10.4 -25.0 -15.7 65 - NNE 59 83 32 45 973.7 - -
27/08:23am -10.7 -25.3 -15.4 68 - NNE 59 78 32 42 974.0 - -
27/08:00am -10.1 -25.9 -16.2 61 - NE 65 82 35 44 973.5 - -
27/07:30am -10.3 -26.1 -16.0 63 - NE 65 87 35 47 973.1 - -
27/07:03am -10.4 -25.8 -15.7 65 - NE 63 85 34 46 973.1 - -
27/07:00am -10.6 -26.0 -15.9 65 - NE 63 80 34 43 973.3 973.6 -
27/06:30am -10.7 -27.4 -15.8 66 - NE 70 93 38 50 973.0 - -
27/06:00am -10.6 -26.0 -15.5 67 - NE 63 82 34 44 972.9 - -
27/05:46am -10.2 -25.2 -15.7 64 - NE 61 83 33 45 972.4 - -
27/05:30am -10.9 -24.9 -14.9 72 - NNE 56 69 30 37 972.6 - -
27/05:00am -10.8 -24.4 -14.7 73 - NNE 54 67 29 36 972.3 - -
27/04:30am -10.6 -24.8 -14.5 73 - NNE 57 72 31 39 971.9 - -
27/04:00am -10.5 -24.7 -14.5 72 - NNE 57 70 31 38 971.8 972.1 -
27/03:30am -10.6 -24.8 -14.3 74 - NNE 57 72 31 39 971.3 - -
27/03:08am -10.6 -24.8 -14.2 75 - NNE 57 76 31 41 971.0 - -
27/03:00am -10.7 -24.8 -13.9 77 - NNE 57 72 31 39 970.8 - -
27/02:40am -10.6 -24.6 -14.2 75 - NE 56 74 30 40 970.7 - -
27/02:30am -10.6 -24.8 -14.3 74 - NNE 57 74 31 40 970.5 - -
27/02:00am -10.5 -25.0 -14.2 74 - NNE 59 72 32 39 970.1 - -
27/01:47am -10.3 -25.6 -14.4 72 - NNE 63 82 34 44 970.1 - -
27/01:30am -10.3 -25.2 -14.2 73 - NNE 61 74 33 40 970.1 - -
27/01:04am -10.9 -25.0 -14.0 78 - NNE 57 76 31 41 970.4 - -
27/01:00am -10.4 -25.3 -14.0 75 - NE 61 76 33 41 970.0 970.3 -
27/12:30am -10.2 -26.6 -13.8 75 - NE 69 87 37 47 969.6 - -
27/12:00am -10.4 -26.8 -13.5 78 - NE 69 91 37 49 969.3 - -
 
Date/Time
EST
Temp
°C
App
Temp
°C
Dew
Point
°C
Rel
Hum
%
Delta-T
°C
Wind Press
QNH
hPa
Press
MSL
hPa
Rain since
9am
mm
Dir  Spd
km/h
Gust
km/h
Spd
kts
Gust
kts
26/11:30pm -10.6 -24.7 -13.1 82 - NNE 57 76 31 41 969.4 - -
26/11:00pm -10.3 -24.4 -12.9 81 - NNE 57 70 31 38 969.3 - -
26/10:30pm -9.8 -25.0 -13.1 77 - NE 63 78 34 42 969.0 - -
26/10:04pm -9.9 -24.0 -12.8 79 - NE 57 78 31 42 969.1 - -
26/10:00pm -10.1 -24.5 -12.7 81 - NE 59 76 32 41 969.2 969.5 -
26/09:30pm -9.6 -25.2 -12.2 81 - NE 65 87 35 47 968.9 - -
26/09:22pm -9.4 -24.6 -12.3 79 - NE 63 87 34 47 968.4 - -
26/09:00pm -9.5 -25.8 -12.0 82 - NNE 69 85 37 46 968.4 - -
26/08:30pm -9.3 -26.2 -12.1 80 - NE 72 95 39 51 967.7 - -
26/08:00pm -9.2 -27.2 -11.8 81 - NE 78 100 42 54 967.8 - -
26/07:30pm -9.1 -26.7 -11.3 84 - NE 76 96 41 52 967.3 - -
26/07:02pm -9.2 -27.2 -11.4 84 - NE 78 96 42 52 967.5 - -
26/07:00pm -9.3 -27.3 -11.3 85 - NE 78 95 42 51 967.6 967.9 -
26/06:31pm -9.0 -26.2 -11.3 83 - NE 74 95 40 51 967.6 - -
26/06:30pm -9.0 -26.2 -11.2 84 - NE 74 87 40 47 967.7 - -
26/06:00pm -9.2 -26.8 -11.1 86 - NE 76 96 41 52 967.4 - -
26/05:30pm -9.2 -28.5 -11.0 87 - NE 85 107 46 58 966.9 - -
26/05:00pm -9.5 -29.9 -10.8 90 - NNE 91 113 49 61 966.3 - -
26/04:30pm -9.4 -28.3 -10.6 91 - NNE 83 104 45 56 966.4 - -
26/04:00pm -9.2 -28.4 -10.4 91 - NNE 85 104 46 56 966.2 966.5 -
26/03:30pm -9.0 -26.5 -10.2 91 - NNE 76 96 41 52 966.5 - -
26/03:00pm -8.7 -27.0 -10.2 89 - NE 80 106 43 57 966.6 - -
26/02:50pm -8.4 -26.3 -10.2 87 - NE 78 106 42 57 966.3 - -
26/02:30pm -8.7 -23.8 -10.5 87 - NE 63 85 34 46 967.9 - -
26/02:00pm -9.1 -23.1 -11.0 86 - ENE 57 80 31 43 968.8 - -
26/01:41pm -9.2 -23.5 -11.1 86 - NE 59 82 32 44 969.0 - -
26/01:30pm -9.1 -22.1 -11.4 83 - NE 52 69 28 37 969.8 - -
26/01:01pm -9.1 -20.4 -11.4 83 - NE 43 63 23 34 970.5 - -
26/01:00pm -9.2 -20.6 -11.8 81 - ENE 43 56 23 30 970.6 970.9 -
26/12:45pm -9.4 -21.3 -11.7 83 - NE 46 67 25 36 970.7 - -
26/12:30pm -9.7 -20.7 -11.9 84 - NE 41 57 22 31 971.5 - -
26/12:29pm -9.6 -20.2 -11.8 84 - NE 39 57 21 31 971.5 - -
26/12:24pm -10.0 -19.5 -12.6 81 - NE 33 44 18 24 972.1 - -
26/12:00pm -10.8 -16.2 -13.7 79 - NE 11 17 6 9 973.4 - -
26/11:30am -14.9 -21.6 -16.7 86 - S 17 20 9 11 974.4 - -
26/11:00am -16.0 -23.3 -17.7 87 - S 20 26 11 14 975.6 - -
26/10:30am -16.6 -23.4 -18.4 86 - S 17 26 9 14 976.4 - -
26/10:00am -16.5 -23.3 -18.4 85 - SSW 17 20 9 11 977.1 977.4 -

Other Formats:

Comma delimited format used in spreadsheet applications
http://www.bom.gov.au/fwo/IDT60803/IDT60803.89571.axf

JavaScript Object Notation format (JSON) in row-major order
http://www.bom.gov.au/fwo/IDT60803/IDT60803.89571.json